createdAt,value
2019-03-10T00:00:47.765Z,75.49
2019-03-10T00:03:21.760Z,75.61
2019-03-10T00:05:55.990Z,75.60
2019-03-10T00:08:31.870Z,76.03
2019-03-10T00:11:07.226Z,75.76
2019-03-10T00:13:41.007Z,76.10
2019-03-10T00:16:17.251Z,76.55
2019-03-10T00:18:50.895Z,76.74
2019-03-10T00:21:28.352Z,77.10
2019-03-10T00:24:02.120Z,77.08
2019-03-10T00:26:36.472Z,77.68
2019-03-10T00:29:10.491Z,77.88
2019-03-10T00:31:44.275Z,77.53
2019-03-10T00:34:17.895Z,78.24
2019-03-10T00:36:53.957Z,78.12
2019-03-10T00:40:47.381Z,78.13
2019-03-10T00:44:32.626Z,78.24
2019-03-10T00:48:04.652Z,77.93
2019-03-10T00:51:38.835Z,78.12
2019-03-10T00:54:14.280Z,78.33
2019-03-10T00:56:47.955Z,78.40
2019-03-10T00:59:21.795Z,78.27
2019-03-10T01:01:55.856Z,78.23
2019-03-10T01:04:29.975Z,78.31
2019-03-10T01:07:04.306Z,78.00
2019-03-10T01:09:38.077Z,78.28
2019-03-10T01:12:12.126Z,78.25
2019-03-10T01:14:46.192Z,77.99
2019-03-10T01:17:21.484Z,77.75
2019-03-10T01:19:55.724Z,78.07
2019-03-10T01:22:30.038Z,78.25
2019-03-10T01:25:03.763Z,78.30
2019-03-10T01:27:39.422Z,78.42
2019-03-10T01:30:19.251Z,78.51
2019-03-10T01:33:35.066Z,78.69
2019-03-10T01:36:15.957Z,78.61
2019-03-10T01:38:49.927Z,78.07
2019-03-10T01:41:23.612Z,78.08
2019-03-10T01:43:58.525Z,78.45
2019-03-10T01:46:32.607Z,78.15
2019-03-10T01:49:06.495Z,77.88
2019-03-10T01:51:40.284Z,77.82
2019-03-10T01:54:14.426Z,77.70
2019-03-10T01:56:50.753Z,77.92
2019-03-10T01:59:25.878Z,77.06
2019-03-10T02:01:59.663Z,76.95
2019-03-10T02:04:33.425Z,76.99
2019-03-10T02:07:08.326Z,76.83
2019-03-10T02:09:42.389Z,76.53
2019-03-10T02:12:17.371Z,76.17
2019-03-10T02:14:52.342Z,76.43
2019-03-10T02:17:27.151Z,76.31
2019-03-10T02:20:00.961Z,76.24
2019-03-10T02:22:35.098Z,75.81
2019-03-10T02:25:11.850Z,75.80
2019-03-10T02:27:46.783Z,76.40
2019-03-10T02:30:21.209Z,76.33
2019-03-10T02:32:54.915Z,76.40
2019-03-10T02:35:28.554Z,76.31
2019-03-10T02:38:02.926Z,76.66
2019-03-10T02:40:36.540Z,76.88
2019-03-10T02:43:11.693Z,77.19
2019-03-10T02:45:47.137Z,77.21
2019-03-10T02:48:20.972Z,77.06
2019-03-10T02:50:55.765Z,77.01
2019-03-10T02:53:29.587Z,76.97
2019-03-10T02:56:03.883Z,76.67
2019-03-10T02:58:38.515Z,76.41
2019-03-10T03:01:12.550Z,76.37
2019-03-10T03:03:46.246Z,76.37
2019-03-10T03:06:20.659Z,76.40
2019-03-10T03:08:54.792Z,76.42
2019-03-10T03:11:28.507Z,76.07
2019-03-10T03:14:02.220Z,76.24
2019-03-10T03:16:37.075Z,76.07
2019-03-10T03:19:10.883Z,75.67
2019-03-10T03:21:45.758Z,76.02
2019-03-10T03:24:19.567Z,75.67
2019-03-10T03:26:54.403Z,75.85
2019-03-10T03:29:30.270Z,75.55
2019-03-10T03:32:05.093Z,75.31
2019-03-10T03:34:39.042Z,75.21
2019-03-10T03:37:17.721Z,75.20
2019-03-10T03:39:54.162Z,75.13
2019-03-10T03:42:28.355Z,74.77
2019-03-10T03:45:03.337Z,74.50
2019-03-10T03:47:40.600Z,74.72
2019-03-10T03:50:14.405Z,75.05
2019-03-10T03:52:48.284Z,74.52
2019-03-10T03:55:22.101Z,74.55
2019-03-10T03:57:56.060Z,74.88
2019-03-10T04:00:29.868Z,74.61
2019-03-10T04:03:03.677Z,74.75
2019-03-10T04:05:37.377Z,74.60
2019-03-10T04:08:11.182Z,74.43
2019-03-10T04:10:46.630Z,74.35
2019-03-10T04:13:20.546Z,74.43
2019-03-10T04:15:55.283Z,74.15
2019-03-10T04:18:29.092Z,74.38
2019-03-10T04:21:02.785Z,74.18
2019-03-10T04:23:36.419Z,73.98
2019-03-10T04:26:10.497Z,74.02
2019-03-10T04:28:49.418Z,73.39
2019-03-10T04:31:25.480Z,73.66
2019-03-10T04:33:59.302Z,73.53
2019-03-10T04:36:34.169Z,73.60
2019-03-10T04:39:09.051Z,73.87
2019-03-10T04:41:43.058Z,73.89
2019-03-10T04:44:16.985Z,74.09
2019-03-10T04:46:51.218Z,74.27
2019-03-10T04:49:24.846Z,74.47
2019-03-10T04:52:00.577Z,74.60
2019-03-10T04:54:55.949Z,74.60
2019-03-10T04:57:30.376Z,74.70
2019-03-10T05:00:04.157Z,74.85
2019-03-10T05:02:39.865Z,74.54
2019-03-10T05:05:13.514Z,75.00
2019-03-10T05:07:47.609Z,74.95
2019-03-10T05:10:21.329Z,74.89
2019-03-10T05:12:55.099Z,75.20
2019-03-10T05:15:29.869Z,75.10
2019-03-10T05:18:03.606Z,75.40
2019-03-10T05:20:37.282Z,75.32
2019-03-10T05:23:41.000Z,75.49
2019-03-10T05:26:16.404Z,75.41
2019-03-10T05:28:51.593Z,75.58
2019-03-10T05:31:27.555Z,75.47
2019-03-10T05:34:01.344Z,75.59
2019-03-10T05:36:36.198Z,75.83
2019-03-10T05:39:10.219Z,75.61
2019-03-10T05:41:43.994Z,76.10
2019-03-10T05:44:19.130Z,76.00
2019-03-10T05:46:55.830Z,76.17
2019-03-10T05:49:30.857Z,75.77
2019-03-10T05:52:07.615Z,75.70
2019-03-10T05:54:41.758Z,76.23
2019-03-10T05:57:15.507Z,75.82
2019-03-10T05:59:49.242Z,75.96
2019-03-10T06:02:24.484Z,75.92
2019-03-10T06:04:59.314Z,76.12
2019-03-10T06:07:33.022Z,75.63
2019-03-10T06:10:07.194Z,75.26
2019-03-10T06:12:42.056Z,75.66
2019-03-10T06:15:15.775Z,75.69
2019-03-10T06:17:53.378Z,75.26
2019-03-10T06:20:27.257Z,75.23
2019-03-10T06:23:01.099Z,75.65
2019-03-10T06:25:35.195Z,75.39
2019-03-10T06:28:10.109Z,74.91
2019-03-10T06:30:43.900Z,74.52
2019-03-10T06:33:18.086Z,74.57
2019-03-10T06:35:52.312Z,74.27
2019-03-10T06:38:26.274Z,74.21
2019-03-10T06:40:59.992Z,73.72
2019-03-10T06:43:34.989Z,73.64
2019-03-10T06:46:12.228Z,73.98
2019-03-10T06:48:47.553Z,73.43
2019-03-10T06:51:22.752Z,73.66
2019-03-10T06:53:56.587Z,73.05
2019-03-10T06:56:30.410Z,73.23
2019-03-10T06:59:04.067Z,73.43
2019-03-10T07:01:38.841Z,73.09
2019-03-10T07:04:13.680Z,73.55
2019-03-10T07:06:47.424Z,73.33
2019-03-10T07:09:22.317Z,73.48
2019-03-10T07:11:56.131Z,73.71
2019-03-10T07:14:30.137Z,73.42
2019-03-10T07:17:05.633Z,73.26
2019-03-10T07:19:39.502Z,72.80
2019-03-10T07:22:15.146Z,72.65
2019-03-10T07:24:51.311Z,72.14
2019-03-10T07:27:27.512Z,71.42
2019-03-10T07:30:20.204Z,71.51
2019-03-10T07:33:08.041Z,71.40
2019-03-10T07:36:05.910Z,71.40
2019-03-10T07:38:48.913Z,71.19
2019-03-10T07:41:30.388Z,70.33
2019-03-10T07:44:25.894Z,70.83
2019-03-10T07:47:06.760Z,70.50
2019-03-10T07:50:00.356Z,70.32
2019-03-10T07:52:45.384Z,70.14
2019-03-10T07:55:38.464Z,70.49
2019-03-10T07:58:42.642Z,70.28
2019-03-10T08:01:42.022Z,70.76
2019-03-10T08:04:44.996Z,70.62
2019-03-10T08:07:36.515Z,71.31
2019-03-10T08:10:27.711Z,71.51
2019-03-10T08:13:31.505Z,71.54
2019-03-10T08:16:27.234Z,71.66
2019-03-10T08:19:20.054Z,72.35
2019-03-10T08:22:09.826Z,72.23
2019-03-10T08:25:02.465Z,71.96
2019-03-10T08:28:02.989Z,71.97
2019-03-10T08:30:58.593Z,72.13
2019-03-10T08:33:52.588Z,71.50
2019-03-10T08:36:48.229Z,72.17
2019-03-10T08:39:39.774Z,72.38
2019-03-10T08:42:32.306Z,72.43
2019-03-10T08:45:26.172Z,72.59
2019-03-10T08:48:32.626Z,72.71
2019-03-10T08:51:15.028Z,72.27
2019-03-10T08:54:11.451Z,72.27
2019-03-10T08:57:06.961Z,73.01
2019-03-10T09:00:04.401Z,73.19
2019-03-10T09:02:56.952Z,73.50
2019-03-10T09:06:03.900Z,74.54
2019-03-10T09:08:54.292Z,74.22
2019-03-10T09:11:52.757Z,74.72
2019-03-10T09:14:48.362Z,75.13
2019-03-10T09:17:43.882Z,75.81
2019-03-10T09:20:42.336Z,76.06
2019-03-10T09:23:37.840Z,77.03
2019-03-10T09:26:42.450Z,77.26
2019-03-10T09:29:26.103Z,77.34
2019-03-10T09:32:27.208Z,77.01
2019-03-10T09:35:09.822Z,77.27
2019-03-10T09:38:03.691Z,77.48
2019-03-10T09:40:43.939Z,78.14
2019-03-10T09:43:24.527Z,78.47
2019-03-10T09:46:05.983Z,78.57
2019-03-10T09:48:58.577Z,78.27
2019-03-10T09:52:02.793Z,79.04
2019-03-10T09:55:00.850Z,78.28
2019-03-10T09:57:45.846Z,77.71
2019-03-10T10:00:35.010Z,77.97
2019-03-10T10:03:33.574Z,78.35
2019-03-10T10:06:33.891Z,78.29
2019-03-10T10:09:21.920Z,78.41
2019-03-10T10:12:12.731Z,79.69
2019-03-10T10:15:03.633Z,80.02
2019-03-10T10:17:59.125Z,78.92
2019-03-10T10:21:00.782Z,80.05
2019-03-10T10:23:44.389Z,80.13
2019-03-10T10:26:43.795Z,81.56
2019-03-10T10:29:48.395Z,79.65
2019-03-10T10:32:31.767Z,80.62
2019-03-10T10:35:13.815Z,80.74
2019-03-10T10:38:18.229Z,77.47
2019-03-10T10:41:07.789Z,79.05
2019-03-10T10:43:59.137Z,79.17
2019-03-10T10:47:00.054Z,77.07
2019-03-10T10:49:57.162Z,76.60
2019-03-10T10:52:58.763Z,77.33
2019-03-10T10:55:51.154Z,77.98
2019-03-10T10:58:46.853Z,78.42
2019-03-10T11:01:33.134Z,76.98
2019-03-10T11:04:31.912Z,76.23
2019-03-10T11:07:22.502Z,77.49
2019-03-10T11:10:15.138Z,75.97
2019-03-10T11:13:12.280Z,73.82
2019-03-10T11:16:00.313Z,74.55
2019-03-10T11:18:50.229Z,76.14
2019-03-10T11:21:52.565Z,75.16
2019-03-10T11:24:35.159Z,76.81
2019-03-10T11:27:34.339Z,76.58
2019-03-10T11:30:35.780Z,76.51
2019-03-10T11:33:29.868Z,78.83
2019-03-10T11:36:19.927Z,76.95
2019-03-10T11:39:11.134Z,78.23
2019-03-10T11:42:06.841Z,80.23
2019-03-10T11:44:49.244Z,79.26
2019-03-10T11:48:00.301Z,80.85
2019-03-10T11:50:55.712Z,78.83
2019-03-10T11:53:54.490Z,77.23
2019-03-10T11:56:47.524Z,78.08
2019-03-10T11:59:26.757Z,80.17
2019-03-10T12:02:18.178Z,81.21
2019-03-10T12:05:06.407Z,81.21
2019-03-10T12:07:51.372Z,78.91
2019-03-10T12:10:26.098Z,78.71
2019-03-10T12:13:01.406Z,78.74
2019-03-10T12:15:36.107Z,79.38
2019-03-10T12:18:10.257Z,80.60
2019-03-10T12:20:44.126Z,80.03
2019-03-10T12:23:20.998Z,81.83
2019-03-10T12:25:55.805Z,81.56
2019-03-10T12:28:31.654Z,81.85
2019-03-10T12:31:05.461Z,83.18
2019-03-10T12:33:39.165Z,82.64
2019-03-10T12:36:13.931Z,82.07
2019-03-10T12:38:51.559Z,80.84
2019-03-10T12:41:26.409Z,81.04
2019-03-10T12:44:01.384Z,82.97
2019-03-10T12:46:35.490Z,83.05
2019-03-10T12:49:09.405Z,82.44
2019-03-10T12:51:43.263Z,82.75
2019-03-10T12:54:16.942Z,83.23
2019-03-10T12:56:51.148Z,82.16
2019-03-10T12:59:26.682Z,81.20
2019-03-10T13:02:04.051Z,81.27
2019-03-10T13:04:37.908Z,83.83
2019-03-10T13:07:11.863Z,84.66
2019-03-10T13:09:48.061Z,85.98
2019-03-10T13:12:23.271Z,85.01
2019-03-10T13:14:59.738Z,85.55
2019-03-10T13:17:33.413Z,84.96
2019-03-10T13:20:08.558Z,86.76
2019-03-10T13:22:42.474Z,87.21
2019-03-10T13:25:16.428Z,87.18
2019-03-10T13:27:50.178Z,88.67
2019-03-10T13:30:24.775Z,88.56
2019-03-10T13:32:58.592Z,88.48
2019-03-10T13:35:34.198Z,88.77
2019-03-10T13:38:10.731Z,88.72
2019-03-10T13:40:44.814Z,89.37
2019-03-10T13:43:21.145Z,89.09
2019-03-10T13:45:55.323Z,88.38
2019-03-10T13:48:30.467Z,89.11
2019-03-10T13:51:04.410Z,87.21
2019-03-10T13:53:39.833Z,87.68
2019-03-10T13:56:14.229Z,87.97
2019-03-10T13:58:49.936Z,87.46
2019-03-10T14:01:26.023Z,86.88
2019-03-10T14:04:00.921Z,87.12
2019-03-10T14:06:34.834Z,87.76
2019-03-10T14:09:10.647Z,87.61
2019-03-10T14:11:44.783Z,86.99
2019-03-10T14:14:21.165Z,88.25
2019-03-10T14:16:54.806Z,88.15
2019-03-10T14:19:28.493Z,89.17
2019-03-10T14:22:02.225Z,89.51
2019-03-10T14:24:36.220Z,88.99
2019-03-10T14:27:12.982Z,88.56
2019-03-10T14:29:49.445Z,86.95
2019-03-10T14:32:23.042Z,87.00
2019-03-10T14:34:57.226Z,86.30
2019-03-10T14:37:33.524Z,88.13
2019-03-10T14:40:11.242Z,88.06
2019-03-10T14:42:46.663Z,89.32
2019-03-10T14:45:22.245Z,86.88
2019-03-10T14:47:56.954Z,86.87
2019-03-10T14:50:30.680Z,86.57
2019-03-10T14:53:06.179Z,87.23
2019-03-10T14:55:40.351Z,87.36
2019-03-10T14:58:18.834Z,86.92
2019-03-10T15:00:57.492Z,86.13
2019-03-10T15:03:31.348Z,86.37
2019-03-10T15:06:04.991Z,86.49
2019-03-10T15:08:38.946Z,85.56
2019-03-10T15:11:13.705Z,85.65
2019-03-10T15:13:48.713Z,86.64
2019-03-10T15:16:24.380Z,86.60
2019-03-10T15:18:58.180Z,86.22
2019-03-10T15:21:32.068Z,85.84
2019-03-10T15:24:09.581Z,86.15
2019-03-10T15:26:46.101Z,86.76
2019-03-10T15:29:21.705Z,86.27
2019-03-10T15:31:57.671Z,87.07
2019-03-10T15:34:35.260Z,87.51
2019-03-10T15:37:11.859Z,88.24
2019-03-10T15:39:47.175Z,89.21
2019-03-10T15:42:21.601Z,89.16
2019-03-10T15:44:55.859Z,89.23
2019-03-10T15:47:32.894Z,88.90
2019-03-10T15:50:11.065Z,89.07
2019-03-10T15:52:44.915Z,89.32
2019-03-10T15:55:19.370Z,89.75
2019-03-10T15:57:53.234Z,89.59
2019-03-10T16:00:28.424Z,89.70
2019-03-10T16:03:02.454Z,89.54
2019-03-10T16:05:37.447Z,89.03
2019-03-10T16:08:12.404Z,89.19
2019-03-10T16:10:46.262Z,88.79
2019-03-10T16:13:24.893Z,88.18
2019-03-10T16:15:59.826Z,88.66
2019-03-10T16:18:33.743Z,89.02
2019-03-10T16:21:07.922Z,89.04
2019-03-10T16:23:41.808Z,88.64
2019-03-10T16:26:16.385Z,88.52
2019-03-10T16:28:51.327Z,88.70
2019-03-10T16:31:26.255Z,89.09
2019-03-10T16:34:01.807Z,89.01
2019-03-10T16:36:38.000Z,88.71
2019-03-10T16:39:12.908Z,88.27
2019-03-10T16:41:49.469Z,88.72
2019-03-10T16:44:23.701Z,89.35
2019-03-10T16:46:58.357Z,88.81
2019-03-10T16:49:34.137Z,88.96
2019-03-10T16:52:08.488Z,89.37
2019-03-10T16:54:44.151Z,89.11
2019-03-10T16:57:18.585Z,89.07
2019-03-10T16:59:52.436Z,88.70
2019-03-10T17:02:27.485Z,88.32
2019-03-10T17:05:02.950Z,89.03
2019-03-10T17:07:36.553Z,88.80
2019-03-10T17:10:15.379Z,88.99
2019-03-10T17:12:50.219Z,89.31
2019-03-10T17:15:24.833Z,89.76
2019-03-10T17:17:58.545Z,90.09
2019-03-10T17:20:32.501Z,90.06
2019-03-10T17:23:06.210Z,90.51
2019-03-10T17:25:40.434Z,90.51
2019-03-10T17:28:14.333Z,89.92
2019-03-10T17:30:50.136Z,89.79
2019-03-10T17:33:25.112Z,89.62
2019-03-10T17:35:59.757Z,89.62
2019-03-10T17:38:33.753Z,89.82
2019-03-10T17:41:09.531Z,89.79
2019-03-10T17:43:43.457Z,90.12
2019-03-10T17:46:18.625Z,89.97
2019-03-10T17:48:52.639Z,90.02
2019-03-10T17:51:26.457Z,89.85
2019-03-10T17:54:00.190Z,90.02
2019-03-10T17:56:35.911Z,90.49
2019-03-10T17:59:10.485Z,91.39
2019-03-10T18:01:46.482Z,91.81
2019-03-10T18:04:21.451Z,91.97
2019-03-10T18:06:55.522Z,92.17
2019-03-10T18:09:31.056Z,92.57
2019-03-10T18:12:05.342Z,92.91
2019-03-10T18:14:42.278Z,92.90
2019-03-10T18:17:19.478Z,92.91
2019-03-10T18:19:54.549Z,92.53
2019-03-10T18:22:28.409Z,92.55
2019-03-10T18:25:02.262Z,92.97
2019-03-10T18:27:36.619Z,93.16
2019-03-10T18:30:16.574Z,93.52
2019-03-10T18:32:51.606Z,93.50
2019-03-10T18:35:25.386Z,93.20
2019-03-10T18:38:03.776Z,93.32
2019-03-10T18:40:37.948Z,93.68
2019-03-10T18:43:11.689Z,93.47
2019-03-10T18:45:50.694Z,92.96
2019-03-10T18:48:26.676Z,92.88
2019-03-10T18:51:00.696Z,93.16
2019-03-10T18:53:36.966Z,93.21
2019-03-10T18:56:11.430Z,93.00
2019-03-10T18:58:45.112Z,92.58
2019-03-10T19:01:22.342Z,92.22
2019-03-10T19:03:56.545Z,92.37
2019-03-10T19:06:31.898Z,92.60
2019-03-10T19:09:07.722Z,92.55
2019-03-10T19:11:43.209Z,92.69
2019-03-10T19:14:17.365Z,92.37
2019-03-10T19:16:51.118Z,92.35
2019-03-10T19:19:32.071Z,91.99
2019-03-10T19:22:06.279Z,92.13
2019-03-10T19:24:42.927Z,92.25
2019-03-10T19:27:29.749Z,92.51
2019-03-10T19:29:57.648Z,92.29
2019-03-10T19:32:32.898Z,92.00
2019-03-10T19:35:11.759Z,92.09
2019-03-10T19:37:48.266Z,91.63
2019-03-10T19:40:23.450Z,91.72
2019-03-10T19:42:57.550Z,91.65
2019-03-10T19:45:32.322Z,91.62
2019-03-10T19:48:06.202Z,91.77
2019-03-10T19:50:40.055Z,91.71
2019-03-10T19:53:16.020Z,91.81
2019-03-10T19:55:50.793Z,92.17
2019-03-10T19:58:26.675Z,92.00
2019-03-10T20:01:03.622Z,92.16
2019-03-10T20:03:38.253Z,92.23
2019-03-10T20:06:12.039Z,92.10
2019-03-10T20:08:48.795Z,92.18
2019-03-10T20:11:22.996Z,92.12
2019-03-10T20:13:57.520Z,91.96
2019-03-10T20:16:32.634Z,92.16
2019-03-10T20:19:08.237Z,92.14
2019-03-10T20:21:45.283Z,92.09
2019-03-10T20:24:19.211Z,92.15
2019-03-10T20:26:52.880Z,92.06
2019-03-10T20:29:28.248Z,92.04
2019-03-10T20:32:13.232Z,92.01
2019-03-10T20:34:37.299Z,91.79
2019-03-10T20:37:11.112Z,92.05
2019-03-10T20:39:48.415Z,92.31
2019-03-10T20:42:24.001Z,92.19
2019-03-10T20:44:57.959Z,92.30
2019-03-10T20:47:32.013Z,92.17
2019-03-10T20:50:06.220Z,92.00
2019-03-10T20:52:40.275Z,91.90
2019-03-10T20:55:17.027Z,92.11
2019-03-10T20:57:51.058Z,91.69
2019-03-10T21:00:25.090Z,91.75
2019-03-10T21:02:58.944Z,91.64
2019-03-10T21:05:32.721Z,91.44
2019-03-10T21:08:06.454Z,91.64
2019-03-10T21:10:41.168Z,91.48
2019-03-10T21:13:15.517Z,91.29
2019-03-10T21:15:49.806Z,91.55
2019-03-10T21:18:23.842Z,91.44
2019-03-10T21:21:00.715Z,91.41
2019-03-10T21:23:34.668Z,91.57
2019-03-10T21:26:08.526Z,91.39
2019-03-10T21:28:42.359Z,91.39
2019-03-10T21:31:17.157Z,91.30
2019-03-10T21:33:51.024Z,91.11
2019-03-10T21:36:24.961Z,91.06
2019-03-10T21:38:59.320Z,90.87
2019-03-10T21:41:33.427Z,91.04
2019-03-10T21:44:07.645Z,91.23
2019-03-10T21:46:41.848Z,91.33
2019-03-10T21:49:15.868Z,91.48
2019-03-10T21:51:49.632Z,91.39
2019-03-10T21:54:23.663Z,91.50
2019-03-10T21:56:57.699Z,91.15
2019-03-10T21:59:31.532Z,91.36
2019-03-10T22:02:05.916Z,91.39
2019-03-10T22:04:39.845Z,91.09
2019-03-10T22:07:13.483Z,90.90
2019-03-10T22:09:47.194Z,91.17
2019-03-10T22:12:21.061Z,90.78
2019-03-10T22:14:55.797Z,90.69
2019-03-10T22:17:29.724Z,90.50
2019-03-10T22:20:04.745Z,90.31
2019-03-10T22:22:48.236Z,90.25
2019-03-10T22:25:14.320Z,90.07
2019-03-10T22:27:48.472Z,90.11
2019-03-10T22:30:24.096Z,90.00
2019-03-10T22:32:59.103Z,89.81
2019-03-10T22:35:32.802Z,89.99
2019-03-10T22:38:06.720Z,89.99
2019-03-10T22:40:41.553Z,89.90
2019-03-10T22:43:15.255Z,89.89
2019-03-10T22:45:48.909Z,90.08
2019-03-10T22:48:23.072Z,90.09
2019-03-10T22:50:56.743Z,90.04
2019-03-10T22:53:32.484Z,90.14
2019-03-10T22:56:07.332Z,90.25
2019-03-10T22:58:41.324Z,90.14
2019-03-10T23:01:15.182Z,90.62
2019-03-10T23:03:50.409Z,90.30
2019-03-10T23:06:24.371Z,90.41
2019-03-10T23:08:58.249Z,90.38
2019-03-10T23:11:32.313Z,90.61
2019-03-10T23:14:08.827Z,90.87
2019-03-10T23:16:42.538Z,90.96
2019-03-10T23:19:16.702Z,91.13
2019-03-10T23:21:50.661Z,91.02
2019-03-10T23:24:26.180Z,90.89
2019-03-10T23:27:02.888Z,91.00
2019-03-10T23:29:36.690Z,91.31
2019-03-10T23:32:10.453Z,91.54
2019-03-10T23:34:45.302Z,91.61
2019-03-10T23:37:20.090Z,91.67
2019-03-10T23:39:54.481Z,91.56
2019-03-10T23:42:29.833Z,91.61
2019-03-10T23:45:03.734Z,91.87
2019-03-10T23:47:38.467Z,91.68
2019-03-10T23:50:12.822Z,91.79
2019-03-10T23:52:46.827Z,92.14
2019-03-10T23:55:21.820Z,92.27
2019-03-10T23:57:56.561Z,92.33
